Time;durP1;ratioP1;P1;durP2;ratioP2;P2;SDS_P1;SDS_P2;PMS_P1;PMS_P2;Temp;Humidity;BMP_temperature;BMP_pressure;BME280_temperature;BME280_humidity;BME280_pressure;Samples;Min_cycle;Max_cycle;Signal;HPM_P1;HPM_P2
2022/11/03 00:00:03;;;;;;;11.55;3.70;;;9.30;99.90;;;;;;5209763;28;20563;-75
2022/11/03 00:02:37;;;;;;;4.78;2.90;;;9.20;99.90;;;;;;5209175;28;20037;-73
2022/11/03 00:08:04;;;;;;;5.90;2.65;;;9.20;99.90;;;;;;5206567;28;20048;-74
2022/11/03 00:10:35;;;;;;;4.53;2.25;;;9.10;99.90;;;;;;5220727;28;20028;-74
2022/11/03 00:13:07;;;;;;;4.20;2.40;;;9.10;99.90;;;;;;5231239;28;20029;-74
2022/11/03 00:15:50;;;;;;;5.30;2.47;;;9.10;99.90;;;;;;5228186;28;20037;-74
2022/11/03 00:18:21;;;;;;;4.13;2.47;;;9.00;99.90;;;;;;5198636;28;20033;-75
2022/11/03 00:21:01;;;;;;;4.45;2.88;;;8.90;99.90;;;;;;5209577;28;20139;-74
2022/11/03 00:23:35;;;;;;;9.10;2.47;;;9.00;99.90;;;;;;5192976;28;20032;-75
2022/11/03 00:26:15;;;;;;;6.85;3.10;;;9.00;99.90;;;;;;5207741;28;20017;-75
2022/11/03 00:28:56;;;;;;;7.43;2.80;;;9.00;99.90;;;;;;5208845;28;20502;-75
2022/11/03 00:31:32;;;;;;;4.47;2.60;;;8.90;99.90;;;;;;5190980;28;20155;-75
2022/11/03 00:34:07;;;;;;;5.18;2.67;;;8.80;99.90;;;;;;5208867;28;20017;-75
2022/11/03 00:36:43;;;;;;;4.57;2.13;;;8.80;99.90;;;;;;5208007;28;20039;-75
2022/11/03 00:39:14;;;;;;;12.05;2.75;;;8.80;99.90;;;;;;5190173;28;20035;-76
2022/11/03 00:41:45;;;;;;;5.20;2.97;;;8.70;99.90;;;;;;5206718;28;20041;-75
2022/11/03 00:44:17;;;;;;;7.32;2.80;;;8.70;99.90;;;;;;5208404;28;20028;-75
2022/11/03 00:46:53;;;;;;;5.32;2.58;;;8.70;99.90;;;;;;5208691;28;20029;-75
2022/11/03 00:49:24;;;;;;;3.05;2.00;;;8.60;99.90;;;;;;5190897;28;20108;-75
2022/11/03 00:51:55;;;;;;;5.88;2.90;;;8.60;99.90;;;;;;5208640;28;20069;-76
2022/11/03 00:54:29;;;;;;;6.72;2.55;;;8.60;99.90;;;;;;5210558;28;20032;-75
2022/11/03 00:57:01;;;;;;;6.55;3.00;;;8.60;99.90;;;;;;5194723;28;20025;-76
2022/11/03 00:59:32;;;;;;;3.65;2.67;;;8.40;99.90;;;;;;5178479;28;20029;-74
2022/11/03 01:02:03;;;;;;;6.53;3.17;;;8.40;99.90;;;;;;5203368;28;20033;-75
2022/11/03 01:07:26;;;;;;;8.07;2.20;;;8.50;99.90;;;;;;5187875;28;20040;-75
2022/11/03 01:09:57;;;;;;;7.22;2.38;;;8.60;99.90;;;;;;5173419;28;20022;-76
2022/11/03 01:12:28;;;;;;;3.35;1.85;;;8.60;99.90;;;;;;5199888;28;20041;-75
2022/11/03 01:15:00;;;;;;;3.72;2.80;;;8.70;99.90;;;;;;5222989;28;20048;-76
2022/11/03 01:17:31;;;;;;;4.72;2.15;;;8.80;99.90;;;;;;5207063;28;20034;-75
2022/11/03 01:20:03;;;;;;;4.47;2.22;;;8.90;99.90;;;;;;5189775;28;20331;-75
2022/11/03 01:22:36;;;;;;;2.95;2.05;;;9.00;99.90;;;;;;5207953;28;20417;-75
2022/11/03 01:25:08;;;;;;;4.68;1.85;;;9.00;99.90;;;;;;5210988;28;20311;-76
2022/11/03 01:27:41;;;;;;;3.53;1.50;;;9.10;99.90;;;;;;5208561;28;20031;-75
2022/11/03 01:30:12;;;;;;;3.10;2.10;;;9.10;99.90;;;;;;5173631;28;20380;-75
2022/11/03 01:32:43;;;;;;;5.18;2.20;;;9.10;99.90;;;;;;5202434;28;20041;-76
2022/11/03 01:35:16;;;;;;;4.45;1.85;;;9.10;99.90;;;;;;5210634;28;20045;-75
2022/11/03 01:37:50;;;;;;;4.18;2.45;;;9.10;99.90;;;;;;5208507;28;20030;-75
2022/11/03 01:40:22;;;;;;;7.00;2.00;;;9.10;99.90;;;;;;5212984;28;20310;-76
2022/11/03 01:42:53;;;;;;;4.28;1.60;;;9.00;99.90;;;;;;5189115;28;20038;-75
2022/11/03 01:45:25;;;;;;;5.35;2.00;;;9.00;99.90;;;;;;5212445;28;20028;-75
2022/11/03 01:48:02;;;;;;;4.05;1.98;;;9.00;99.90;;;;;;5211050;28;20033;-75
2022/11/03 01:50:33;;;;;;;5.40;2.08;;;9.00;99.90;;;;;;5211521;28;20040;-76
2022/11/03 01:53:11;;;;;;;5.63;2.13;;;8.90;99.90;;;;;;5210858;28;20223;-75
2022/11/03 01:55:47;;;;;;;7.43;1.65;;;8.90;99.90;;;;;;5213572;28;20025;-75
2022/11/03 01:58:25;;;;;;;2.17;1.75;;;8.80;99.90;;;;;;5208204;28;20039;-74
2022/11/03 02:01:01;;;;;;;3.00;2.25;;;8.80;99.90;;;;;;5210602;28;20036;-75
2022/11/03 02:03:44;;;;;;;5.78;1.73;;;8.80;99.90;;;;;;5204706;28;20044;-74
2022/11/03 02:06:18;;;;;;;3.50;1.83;;;8.90;99.90;;;;;;5182395;28;20047;-74
2022/11/03 02:09:07;;;;;;;3.38;1.92;;;8.80;99.90;;;;;;5188763;28;20231;-75
2022/11/03 02:14:28;;;;;;;7.95;2.08;;;8.80;99.90;;;;;;5193739;28;20433;-75
2022/11/03 02:17:04;;;;;;;3.80;1.70;;;8.80;99.90;;;;;;5160815;28;20032;-74
2022/11/03 02:19:54;;;;;;;4.45;2.25;;;8.70;99.90;;;;;;5204375;28;20263;-74
2022/11/03 02:22:59;;;;;;;2.08;1.80;;;8.70;99.90;;;;;;5197918;28;20220;-74
2022/11/03 02:25:30;;;;;;;4.85;1.73;;;8.70;99.90;;;;;;5149167;28;20034;-73
2022/11/03 02:28:03;;;;;;;3.05;1.98;;;8.80;99.90;;;;;;5181713;28;20037;-74
2022/11/03 02:30:43;;;;;;;4.22;2.00;;;8.70;99.90;;;;;;5190356;28;20032;-73
2022/11/03 02:33:36;;;;;;;7.15;1.83;;;8.60;99.90;;;;;;5190417;28;20041;-74
2022/11/03 02:36:23;;;;;;;4.43;2.53;;;8.50;99.90;;;;;;5163949;28;20040;-74
2022/11/03 02:39:03;;;;;;;6.10;2.00;;;8.50;99.90;;;;;;5189468;28;20532;-73
2022/11/03 02:41:37;;;;;;;3.75;1.92;;;8.50;99.90;;;;;;5155684;28;20044;-73
2022/11/03 02:44:17;;;;;;;4.25;1.95;;;8.60;99.90;;;;;;5155735;28;20303;-74
2022/11/03 02:46:54;;;;;;;5.50;2.25;;;8.70;99.90;;;;;;5189244;28;20599;-73
2022/11/03 02:49:29;;;;;;;4.20;1.90;;;8.80;99.90;;;;;;5188822;28;20034;-73
2022/11/03 02:52:01;;;;;;;5.22;1.90;;;8.90;99.90;;;;;;5165349;28;20044;-74
2022/11/03 02:54:43;;;;;;;2.25;1.98;;;9.00;99.90;;;;;;5189489;28;20308;-74
2022/11/03 02:57:28;;;;;;;7.38;2.67;;;9.10;99.90;;;;;;5186938;28;20223;-74
2022/11/03 03:00:05;;;;;;;4.50;1.77;;;9.20;99.90;;;;;;5167385;28;20033;-73
2022/11/03 03:02:51;;;;;;;4.13;2.38;;;9.30;99.90;;;;;;5175218;28;20041;-74
2022/11/03 03:05:27;;;;;;;4.57;1.90;;;9.40;99.90;;;;;;5171294;28;20046;-73
2022/11/03 03:08:10;;;;;;;13.02;2.25;;;9.50;99.90;;;;;;5197155;28;20030;-74
2022/11/03 03:10:48;;;;;;;8.95;2.35;;;9.60;99.90;;;;;;5215608;28;20327;-74
2022/11/03 03:13:22;;;;;;;3.85;1.73;;;9.70;99.90;;;;;;5208958;28;20037;-74
2022/11/03 03:16:04;;;;;;;4.57;2.05;;;9.80;99.90;;;;;;5190853;28;20035;-75
2022/11/03 03:19:24;;;;;;;4.90;2.10;;;9.80;99.90;;;;;;5190485;28;20033;-74
2022/11/03 03:22:00;;;;;;;3.28;1.98;;;9.70;99.90;;;;;;5191259;28;20036;-74
2022/11/03 03:25:10;;;;;;;5.70;2.15;;;9.70;99.90;;;;;;5206749;28;20029;-73
2022/11/03 03:27:48;;;;;;;2.20;1.83;;;9.70;99.90;;;;;;5166936;28;20041;-75
2022/11/03 03:30:20;;;;;;;6.55;2.30;;;9.60;99.90;;;;;;5191976;28;20464;-75
2022/11/03 03:32:53;;;;;;;3.88;2.05;;;9.50;99.90;;;;;;5208436;28;20033;-75
2022/11/03 03:35:28;;;;;;;2.75;1.88;;;9.60;99.90;;;;;;5191220;28;20025;-75
2022/11/03 03:38:06;;;;;;;2.53;1.92;;;9.50;99.90;;;;;;5211200;28;20032;-74
2022/11/03 03:40:43;;;;;;;3.15;1.95;;;9.60;99.90;;;;;;5207455;28;20036;-75
2022/11/03 03:43:15;;;;;;;3.85;2.00;;;9.60;99.90;;;;;;5206436;28;20258;-74
2022/11/03 03:45:51;;;;;;;2.78;2.15;;;9.50;99.90;;;;;;5204205;28;20037;-74
2022/11/03 03:48:23;;;;;;;4.53;2.08;;;9.40;99.90;;;;;;5211549;28;20442;-75
2022/11/03 03:50:54;;;;;;;5.20;2.17;;;9.20;99.90;;;;;;5208776;28;20029;-75
2022/11/03 03:53:33;;;;;;;4.50;2.45;;;9.10;99.90;;;;;;5203576;28;20021;-75
2022/11/03 03:56:09;;;;;;;5.45;2.53;;;9.10;99.90;;;;;;5173278;28;20048;-75
2022/11/03 03:58:41;;;;;;;4.68;2.70;;;9.00;99.90;;;;;;5204495;28;20032;-74
2022/11/03 04:01:15;;;;;;;3.60;1.95;;;9.00;99.90;;;;;;5208744;28;20037;-75
2022/11/03 04:03:46;;;;;;;2.65;1.80;;;8.90;99.90;;;;;;5191232;28;20462;-75
2022/11/03 04:06:21;;;;;;;2.42;1.63;;;8.90;99.90;;;;;;5176903;28;20045;-75
2022/11/03 04:08:52;;;;;;;3.58;2.28;;;8.80;99.90;;;;;;5197186;28;20491;-75
2022/11/03 04:22:42;;;;;;;4.13;2.28;;;8.70;99.90;;;;;;5206408;28;20039;-73
2022/11/03 04:25:18;;;;;;;2.55;2.10;;;8.80;99.90;;;;;;5207908;28;20025;-74
2022/11/03 04:27:50;;;;;;;4.53;2.05;;;8.90;99.90;;;;;;5207798;28;20041;-74
2022/11/03 04:30:25;;;;;;;4.32;2.40;;;9.00;99.90;;;;;;5192876;28;20059;-74
2022/11/03 04:32:56;;;;;;;4.47;2.00;;;9.10;99.90;;;;;;5210702;28;20045;-74
2022/11/03 04:35:27;;;;;;;7.40;1.83;;;9.10;99.90;;;;;;5210838;28;20052;-73
2022/11/03 04:38:11;;;;;;;2.35;2.15;;;9.10;99.90;;;;;;5211542;28;20041;-74
2022/11/03 04:40:48;;;;;;;4.10;2.40;;;9.20;99.90;;;;;;5193346;28;20026;-75
2022/11/03 04:43:22;;;;;;;5.68;2.50;;;9.30;99.90;;;;;;5203332;28;20065;-74
2022/11/03 04:45:54;;;;;;;4.07;2.47;;;9.40;99.90;;;;;;5173637;28;20329;-74
2022/11/03 04:48:27;;;;;;;5.25;2.15;;;9.40;99.90;;;;;;5211640;28;20029;-74
2022/11/03 04:51:03;;;;;;;5.57;2.47;;;9.40;99.90;;;;;;5210744;28;20492;-75
2022/11/03 04:53:34;;;;;;;4.32;2.42;;;9.40;99.90;;;;;;5209929;28;20652;-75
2022/11/03 04:56:16;;;;;;;4.82;2.65;;;9.30;99.90;;;;;;5176164;28;20030;-75
2022/11/03 04:58:48;;;;;;;5.60;2.10;;;9.30;99.90;;;;;;5173920;28;20306;-73
2022/11/03 05:01:21;;;;;;;2.28;2.00;;;9.30;99.90;;;;;;5196349;28;20029;-75
2022/11/03 05:03:59;;;;;;;3.72;1.88;;;9.40;99.90;;;;;;5180325;28;20050;-73
2022/11/03 05:06:33;;;;;;;4.43;2.40;;;9.50;99.90;;;;;;5208954;28;20051;-73
2022/11/03 05:09:18;;;;;;;4.47;2.40;;;9.50;99.90;;;;;;5209117;28;20040;-74
2022/11/03 05:11:49;;;;;;;6.13;2.22;;;9.50;99.90;;;;;;5212127;28;20033;-73
2022/11/03 05:14:28;;;;;;;5.45;2.47;;;9.60;99.90;;;;;;5211343;28;20063;-74
2022/11/03 05:17:17;;;;;;;3.33;2.50;;;9.70;99.90;;;;;;5208967;28;20044;-74
2022/11/03 05:20:12;;;;;;;2.58;2.10;;;9.60;99.90;;;;;;5188817;28;20029;-75
2022/11/03 05:22:43;;;;;;;;;;;9.50;99.90;;;;;;5207088;28;20037;-73
2022/11/03 05:25:44;;;;;;;5.80;2.40;;;9.30;99.90;;;;;;5210812;28;19916;-74
2022/11/03 05:28:23;;;;;;;3.13;2.40;;;9.20;99.90;;;;;;5193153;28;20043;-75
2022/11/03 05:30:55;;;;;;;3.90;2.50;;;9.20;99.90;;;;;;5210885;28;20039;-74
2022/11/03 05:33:35;;;;;;;3.20;2.47;;;9.30;99.90;;;;;;5210062;28;20048;-73
2022/11/03 05:36:18;;;;;;;3.80;2.58;;;9.50;99.90;;;;;;5192102;28;20026;-74
2022/11/03 05:38:53;;;;;;;3.75;2.33;;;9.60;99.90;;;;;;5205806;28;20029;-74
2022/11/03 05:41:29;;;;;;;4.05;2.30;;;9.60;99.90;;;;;;5205792;28;20061;-74
2022/11/03 05:44:22;;;;;;;3.95;2.47;;;9.70;99.90;;;;;;5208922;28;20044;-74
2022/11/03 05:46:53;;;;;;;6.72;3.10;;;9.60;99.90;;;;;;5201110;28;20033;-74
2022/11/03 05:49:24;;;;;;;4.82;2.40;;;9.60;99.90;;;;;;5198268;28;20036;-74
2022/11/03 05:51:56;;;;;;;4.15;3.10;;;9.50;99.90;;;;;;5192450;28;20032;-75
2022/11/03 05:54:32;;;;;;;4.10;2.78;;;9.50;99.90;;;;;;5218053;28;20033;-73
2022/11/03 05:57:12;;;;;;;4.65;3.03;;;9.50;99.90;;;;;;5220421;28;20040;-75
2022/11/03 05:59:49;;;;;;;4.80;3.33;;;9.50;99.90;;;;;;5209940;28;20029;-74
2022/11/03 06:02:41;;;;;;;27.85;16.17;;;9.50;99.90;;;;;;5188274;28;20046;-74
2022/11/03 06:05:22;;;;;;;1880.85;816.72;;;9.60;99.90;;;;;;5198373;28;20071;-74
2022/11/03 06:08:02;;;;;;;75.30;38.28;;;9.60;99.90;;;;;;5207172;28;20164;-75
2022/11/03 06:10:39;;;;;;;39.15;24.92;;;9.70;99.90;;;;;;5200053;28;20447;-75
2022/11/03 06:13:15;;;;;;;102.03;77.57;;;9.60;99.90;;;;;;5193401;28;20054;-75
2022/11/03 06:15:55;;;;;;;21.60;14.00;;;9.80;99.90;;;;;;5206518;28;20036;-75
2022/11/03 06:18:34;;;;;;;68.45;61.22;;;9.90;99.90;;;;;;5208944;28;20028;-74
2022/11/03 06:21:17;;;;;;;8.75;6.95;;;10.20;99.90;;;;;;5209990;28;20387;-73
2022/11/03 06:23:53;;;;;;;5.13;3.85;;;10.30;99.90;;;;;;5210286;28;20021;-75
2022/11/03 06:26:31;;;;;;;7.65;5.28;;;10.40;99.90;;;;;;5189552;28;20037;-73
2022/11/03 06:29:02;;;;;;;8.30;3.95;;;10.60;99.90;;;;;;5212307;28;20024;-75
2022/11/03 06:31:34;;;;;;;7.10;5.68;;;10.70;99.90;;;;;;5176398;28;20034;-75
2022/11/03 06:34:21;;;;;;;45.15;40.95;;;10.70;99.90;;;;;;5187844;28;20308;-75
2022/11/03 06:36:54;;;;;;;27.63;24.90;;;10.80;99.90;;;;;;5209660;28;20052;-76
2022/11/03 06:39:28;;;;;;;9.52;5.95;;;10.80;99.90;;;;;;5211527;28;20046;-75
2022/11/03 06:42:11;;;;;;;5.63;3.22;;;10.90;99.90;;;;;;5211030;28;20037;-75
2022/11/03 06:44:48;;;;;;;54.22;48.72;;;10.90;99.90;;;;;;5187788;28;20040;-75
2022/11/03 06:47:31;;;;;;;24.00;21.60;;;10.80;99.90;;;;;;5203477;28;20030;-75
2022/11/03 06:50:21;;;;;;;13.85;11.43;;;10.70;99.90;;;;;;5194396;28;20040;-74
2022/11/03 06:53:00;;;;;;;19.20;15.88;;;10.70;99.90;;;;;;5206444;28;20052;-75
2022/11/03 06:55:32;;;;;;;13.80;10.73;;;10.70;99.90;;;;;;5205585;28;20040;-74
2022/11/03 06:58:13;;;;;;;12.25;4.78;;;10.70;99.90;;;;;;5189486;28;20426;-74
2022/11/03 07:00:44;;;;;;;14.00;11.63;;;10.80;99.90;;;;;;5209561;28;20322;-74
2022/11/03 07:03:36;;;;;;;18.70;16.88;;;10.80;99.90;;;;;;5184412;28;20041;-74
2022/11/03 07:06:10;;;;;;;17.98;14.57;;;10.90;99.90;;;;;;5183724;28;20058;-75
2022/11/03 07:09:09;;;;;;;11.50;10.35;;;11.00;99.90;;;;;;5200412;28;20033;-76
2022/11/03 07:11:48;;;;;;;12.68;11.40;;;11.00;99.90;;;;;;5124749;29;20035;-76
2022/11/03 07:14:27;;;;;;;9.38;3.97;;;11.00;99.90;;;;;;5123796;29;20035;-76
2022/11/03 07:17:04;;;;;;;9.30;6.70;;;11.10;99.90;;;;;;5126288;28;20049;-75
2022/11/03 07:19:41;;;;;;;27.55;19.83;;;11.10;99.90;;;;;;5124705;29;20049;-76
2022/11/03 07:22:24;;;;;;;8.23;6.07;;;11.20;99.90;;;;;;5125601;29;20175;-75
2022/11/03 07:24:59;;;;;;;7.20;4.07;;;11.40;99.90;;;;;;5126249;29;20037;-75
2022/11/03 07:27:38;;;;;;;8.48;4.40;;;11.40;99.90;;;;;;5110596;29;20041;-75
2022/11/03 07:30:15;;;;;;;7.13;5.13;;;11.30;99.90;;;;;;5109623;29;20049;-75
2022/11/03 07:32:52;;;;;;;11.48;6.32;;;11.30;99.90;;;;;;5110068;29;20039;-75
2022/11/03 07:35:35;;;;;;;10.75;3.20;;;11.30;99.90;;;;;;5109476;29;20039;-74
2022/11/03 07:38:17;;;;;;;7.05;3.38;;;11.30;99.90;;;;;;5120842;29;20053;-73
2022/11/03 07:40:52;;;;;;;3.88;2.75;;;11.50;99.90;;;;;;5110042;29;20035;-74
2022/11/03 07:43:37;;;;;;;6.18;3.95;;;11.60;99.90;;;;;;5124829;28;20107;-75
2022/11/03 07:46:18;;;;;;;8.27;3.95;;;11.70;99.90;;;;;;5123922;29;20083;-74
2022/11/03 07:49:01;;;;;;;13.07;3.70;;;11.80;99.90;;;;;;5173576;28;20030;-74
2022/11/03 07:51:36;;;;;;;4.93;3.58;;;11.60;99.90;;;;;;5207664;28;20040;-76
2022/11/03 07:54:07;;;;;;;5.50;3.33;;;11.60;99.90;;;;;;5228893;28;20044;-76
2022/11/03 07:56:44;;;;;;;6.75;3.55;;;11.60;99.90;;;;;;5228735;28;20031;-76
2022/11/03 07:59:23;;;;;;;9.73;3.88;;;11.60;99.90;;;;;;5219959;28;20051;-76
2022/11/03 08:01:59;;;;;;;8.98;3.70;;;11.60;99.90;;;;;;5215677;28;20036;-76
2022/11/03 08:04:33;;;;;;;10.48;3.83;;;11.70;99.90;;;;;;5154773;28;20275;-76
2022/11/03 08:07:04;;;;;;;5.72;3.00;;;11.90;99.90;;;;;;5186574;28;20319;-76
2022/11/03 08:09:35;;;;;;;7.00;4.45;;;12.10;99.90;;;;;;5188048;28;20045;-75
2022/11/03 08:12:09;;;;;;;11.13;3.97;;;12.10;99.90;;;;;;5170046;28;20056;-74
2022/11/03 08:14:40;;;;;;;7.07;4.30;;;12.20;99.90;;;;;;5188861;28;20037;-75
2022/11/03 08:17:16;;;;;;;5.28;3.65;;;12.50;99.90;;;;;;5188875;28;20173;-75
2022/11/03 08:19:48;;;;;;;7.07;3.92;;;12.60;99.90;;;;;;5207334;28;20035;-75
2022/11/03 08:22:19;;;;;;;6.30;3.67;;;12.60;99.90;;;;;;5192446;28;20034;-75
2022/11/03 08:24:51;;;;;;;6.10;3.45;;;12.90;99.90;;;;;;5169014;28;20056;-76
2022/11/03 08:27:26;;;;;;;7.03;3.47;;;13.10;99.90;;;;;;5150385;28;20445;-75
2022/11/03 08:29:57;;;;;;;;;;;12.90;99.90;;;;;;5187989;28;20034;-75
2022/11/03 08:32:28;;;;;;;5.32;3.47;;;13.20;99.90;;;;;;5182501;28;20025;-75
2022/11/03 08:34:59;;;;;;;5.03;3.33;;;13.30;99.90;;;;;;5169703;28;20072;-75
2022/11/03 08:37:31;;;;;;;6.80;3.65;;;13.50;99.90;;;;;;5186649;28;20242;-76
2022/11/03 08:40:05;;;;;;;8.95;3.42;;;13.60;99.90;;;;;;5172326;28;20038;-75
2022/11/03 08:42:36;;;;;;;5.25;4.20;;;13.60;99.90;;;;;;5165754;28;20034;-75
2022/11/03 08:45:08;;;;;;;5.93;3.65;;;13.80;99.90;;;;;;5166091;28;20043;-75
2022/11/03 08:47:41;;;;;;;5.32;3.45;;;14.00;99.90;;;;;;5182296;28;20051;-76
2022/11/03 08:50:12;;;;;;;6.57;3.60;;;14.20;99.90;;;;;;5188032;28;20033;-76
2022/11/03 08:52:48;;;;;;;5.28;2.95;;;14.40;99.90;;;;;;5167656;28;20030;-75
2022/11/03 08:55:19;;;;;;;8.20;3.75;;;14.70;99.90;;;;;;5187056;28;20094;-75
2022/11/03 08:57:50;;;;;;;5.50;3.42;;;14.90;99.90;;;;;;5164669;28;20035;-75
2022/11/03 09:00:25;;;;;;;29.98;20.40;;;15.30;99.90;;;;;;5156473;28;20284;-76
2022/11/03 09:02:56;;;;;;;306.50;230.43;;;15.60;99.90;;;;;;5200664;28;20030;-75
2022/11/03 09:05:28;;;;;;;7.88;6.22;;;15.80;99.90;;;;;;5179704;28;20049;-76
2022/11/03 09:07:59;;;;;;;10.93;7.97;;;16.10;99.90;;;;;;5203755;28;20060;-75
2022/11/03 09:10:33;;;;;;;25.35;18.40;;;16.30;99.90;;;;;;5206772;28;20257;-76
2022/11/03 09:13:06;;;;;;;27.63;19.27;;;16.30;99.90;;;;;;5206991;28;20050;-75
2022/11/03 09:15:40;;;;;;;10.93;9.00;;;16.20;99.90;;;;;;5210096;28;20033;-76
2022/11/03 09:18:11;;;;;;;5.70;2.53;;;16.50;99.90;;;;;;5211549;28;20029;-76
2022/11/03 09:20:47;;;;;;;7.93;7.05;;;16.50;99.90;;;;;;5194395;28;20205;-76
2022/11/03 09:23:18;;;;;;;13.57;12.23;;;16.70;99.90;;;;;;5211348;28;20029;-75
2022/11/03 09:25:50;;;;;;;6.70;4.55;;;16.70;99.90;;;;;;5217395;28;20037;-76
2022/11/03 09:28:21;;;;;;;10.27;6.82;;;16.90;99.90;;;;;;5210176;28;20037;-76
2022/11/03 09:30:52;;;;;;;6.85;3.47;;;17.30;99.90;;;;;;5211651;28;20030;-76
2022/11/03 09:33:23;;;;;;;7.55;6.85;;;17.60;99.90;;;;;;5189778;28;20045;-76
2022/11/03 09:35:55;;;;;;;8.02;5.72;;;17.30;99.90;;;;;;5209709;28;20052;-76
2022/11/03 09:38:26;;;;;;;14.05;12.65;;;17.20;99.90;;;;;;5189049;28;20028;-77
2022/11/03 09:40:57;;;;;;;22.95;17.83;;;17.00;99.90;;;;;;5206097;28;20029;-76
2022/11/03 09:43:35;;;;;;;9.30;2.60;;;17.40;99.90;;;;;;5211362;28;20048;-76
2022/11/03 09:46:13;;;;;;;5.63;5.03;;;17.60;99.90;;;;;;5190485;28;20038;-76
2022/11/03 09:48:44;;;;;;;16.42;14.02;;;17.50;99.90;;;;;;5210127;28;20076;-76
2022/11/03 09:51:21;;;;;;;9.32;5.88;;;17.50;99.90;;;;;;5192562;28;20055;-76
2022/11/03 09:53:55;;;;;;;6.85;4.55;;;17.50;99.90;;;;;;5191753;28;20538;-76
2022/11/03 09:56:26;;;;;;;10.55;7.47;;;17.60;99.90;;;;;;5210933;28;20033;-76
2022/11/03 09:59:01;;;;;;;9.68;8.60;;;18.00;99.90;;;;;;5226268;28;20027;-77
2022/11/03 10:01:32;;;;;;;11.30;7.65;;;18.30;99.90;;;;;;5225371;28;20029;-76
2022/11/03 10:04:04;;;;;;;6.22;3.83;;;18.30;99.90;;;;;;5189200;28;20032;-76
2022/11/03 10:06:35;;;;;;;6.70;5.25;;;18.50;99.90;;;;;;5195666;28;20073;-76
2022/11/03 10:09:19;;;;;;;8.90;7.80;;;18.60;99.90;;;;;;5171227;28;20050;-76
2022/11/03 10:11:56;;;;;;;5.07;2.88;;;19.40;99.90;;;;;;5209602;28;20037;-76
2022/11/03 10:14:27;;;;;;;3.58;2.95;;;19.70;99.90;;;;;;5189079;28;20042;-76
2022/11/03 10:16:59;;;;;;;12.57;8.05;;;19.40;99.90;;;;;;5220406;28;20013;-76
2022/11/03 10:19:30;;;;;;;4.35;2.70;;;19.80;99.90;;;;;;5184881;28;20538;-76
2022/11/03 10:22:02;;;;;;;2.55;1.98;;;19.40;99.90;;;;;;5207615;28;20640;-76
2022/11/03 10:24:36;;;;;;;5.25;2.78;;;19.70;99.90;;;;;;5167866;28;20022;-76
2022/11/03 10:27:24;;;;;;;;;;;19.50;99.90;;;;;;5201597;28;20029;-76
2022/11/03 10:30:16;;;;;;;5.47;3.85;;;18.90;99.90;;;;;;5191932;28;19907;-76
2022/11/03 10:32:47;;;;;;;23.17;19.45;;;18.70;99.90;;;;;;5209976;28;20031;-76
2022/11/03 10:35:34;;;;;;;3.22;1.95;;;19.20;99.90;;;;;;5207942;28;20030;-76
2022/11/03 10:38:35;;;;;;;6.22;2.83;;;19.60;99.90;;;;;;5209653;28;20025;-76
2022/11/03 10:41:14;;;;;;;7.95;2.47;;;19.30;99.90;;;;;;5126893;28;20037;-75
2022/11/03 10:44:01;;;;;;;5.82;2.78;;;19.20;99.90;;;;;;5127955;28;20042;-75
2022/11/03 10:46:33;;;;;;;12.02;9.27;;;19.60;99.90;;;;;;5144343;28;20046;-74
2022/11/03 10:49:15;;;;;;;5.88;2.72;;;20.30;99.90;;;;;;5120178;29;20031;-74
2022/11/03 10:51:52;;;;;;;2.85;1.95;;;20.10;99.90;;;;;;5127424;29;20031;-77
2022/11/03 10:54:24;;;;;;;13.45;11.80;;;19.30;99.90;;;;;;5126940;29;20043;-76
2022/11/03 10:56:55;;;;;;;150.38;134.93;;;19.80;99.90;;;;;;5110566;29;20505;-75
2022/11/03 10:59:37;;;;;;;25.30;23.13;;;20.60;99.90;;;;;;5121181;28;20050;-74
2022/11/03 11:02:35;;;;;;;7.28;5.82;;;20.40;99.90;;;;;;5126313;28;20165;-75
2022/11/03 11:05:21;;;;;;;7.85;7.10;;;20.60;99.90;;;;;;5063898;29;20250;-75
2022/11/03 11:07:54;;;;;;;12.50;10.65;;;21.30;99.90;;;;;;5068288;29;20040;-76
2022/11/03 11:10:30;;;;;;;6.35;3.60;;;20.20;99.90;;;;;;5062818;29;20044;-74
2022/11/03 11:13:12;;;;;;;11.70;9.50;;;20.30;99.90;;;;;;5052825;29;20032;-75
2022/11/03 11:15:46;;;;;;;4.47;4.07;;;20.60;99.90;;;;;;5032014;29;20045;-74
2022/11/03 11:18:29;;;;;;;7.07;5.65;;;20.60;99.90;;;;;;5100080;29;20041;-75
2022/11/03 11:21:24;;;;;;;5.78;3.97;;;21.00;99.90;;;;;;5107920;29;20036;-75
2022/11/03 11:23:57;;;;;;;6.72;4.93;;;20.90;99.90;;;;;;5102501;29;20045;-74
2022/11/03 11:26:35;;;;;;;10.98;9.88;;;20.80;99.90;;;;;;5128101;29;20175;-77
2022/11/03 11:29:12;;;;;;;3.80;3.05;;;21.00;99.90;;;;;;5126914;29;20371;-75
2022/11/03 11:31:44;;;;;;;11.15;7.70;;;21.20;99.90;;;;;;5124192;29;20041;-75
2022/11/03 11:34:17;;;;;;;31.17;19.15;;;21.30;99.90;;;;;;5106272;29;20054;-75
2022/11/03 11:36:54;;;;;;;41.28;31.77;;;21.70;99.90;;;;;;5125687;28;20031;-74
2022/11/03 11:39:25;;;;;;;132.38;76.45;;;21.10;99.90;;;;;;5125888;29;20074;-75
2022/11/03 11:42:13;;;;;;;143.95;87.45;;;21.00;99.90;;;;;;5160222;28;20037;-75
2022/11/03 11:44:48;;;;;;;291.83;172.60;;;20.70;99.90;;;;;;5209821;28;20031;-74
2022/11/03 11:47:34;;;;;;;;;;;20.80;99.90;;;;;;5188375;28;20048;-75
2022/11/03 11:50:12;;;;;;;203.95;125.20;;;20.90;99.90;;;;;;5208277;28;20443;-75
2022/11/03 11:53:03;;;;;;;33.08;21.85;;;21.20;99.90;;;;;;5206555;28;20028;-75
2022/11/03 11:55:42;;;;;;;22.13;14.38;;;21.80;99.90;;;;;;5229097;28;20037;-76
2022/11/03 11:59:04;;;;;;;58.50;37.40;;;21.80;99.90;;;;;;5200400;28;20030;-74
2022/11/03 12:01:36;;;;;;;33.47;23.00;;;22.10;99.90;;;;;;5129519;28;20031;-75
2022/11/03 12:04:32;;;;;;;52.53;38.35;;;22.30;99.90;;;;;;5142161;28;20047;-75
2022/11/03 12:07:04;;;;;;;16.27;13.02;;;21.90;99.90;;;;;;5128052;28;20141;-75
2022/11/03 12:09:42;;;;;;;11.20;8.93;;;21.20;99.90;;;;;;5145285;28;20044;-75
2022/11/03 12:12:40;;;;;;;14.27;11.45;;;20.80;99.90;;;;;;5146530;28;20074;-76
2022/11/03 12:15:50;;;;;;;24.83;18.25;;;21.50;99.90;;;;;;5145244;28;20035;-77
2022/11/03 12:18:39;;;;;;;12.48;8.18;;;22.70;99.90;;;;;;5144906;28;20166;-76
2022/11/03 12:21:46;;;;;;;3.78;2.63;;;21.40;99.90;;;;;;5128361;28;21503;-75
2022/11/03 12:24:46;;;;;;;2.45;2.17;;;21.60;99.90;;;;;;5127902;28;20038;-75
2022/11/03 12:27:25;;;;;;;10.63;7.55;;;21.10;99.90;;;;;;5145810;28;20057;-75
2022/11/03 12:30:02;;;;;;;5.85;3.95;;;21.10;99.90;;;;;;5145286;28;20035;-75
2022/11/03 12:32:34;;;;;;;5.50;2.85;;;21.10;99.90;;;;;;5141969;28;20035;-75
2022/11/03 12:35:08;;;;;;;3.30;2.20;;;20.80;99.90;;;;;;5162954;28;20043;-75
2022/11/03 12:37:42;;;;;;;3.28;2.30;;;20.80;99.90;;;;;;5208727;28;20035;-74
2022/11/03 12:40:13;;;;;;;12.80;3.40;;;20.70;99.90;;;;;;5203503;28;20033;-76
2022/11/03 12:42:48;;;;;;;9.35;2.90;;;20.30;99.90;;;;;;5208996;28;20037;-75
2022/11/03 12:45:19;;;;;;;4.97;2.33;;;21.00;99.90;;;;;;5208468;28;20018;-75
2022/11/03 12:47:56;;;;;;;117.38;104.90;;;21.80;99.90;;;;;;5189132;28;20038;-77
2022/11/03 12:50:27;;;;;;;104.95;95.15;;;21.90;99.90;;;;;;5190455;28;20030;-76
2022/11/03 12:52:59;;;;;;;8.40;6.45;;;21.50;99.90;;;;;;5178344;28;20042;-75
2022/11/03 12:55:30;;;;;;;11.32;9.07;;;21.90;99.90;;;;;;5211530;28;20041;-75
2022/11/03 12:58:02;;;;;;;15.13;13.40;;;21.50;99.90;;;;;;5191548;28;20037;-75
2022/11/03 13:00:33;;;;;;;5.90;2.72;;;21.30;99.90;;;;;;5196826;28;20039;-75
2022/11/03 13:03:06;;;;;;;3.22;2.80;;;20.30;99.90;;;;;;5213284;28;20040;-75
2022/11/03 13:05:40;;;;;;;4.65;2.97;;;19.80;99.90;;;;;;5184781;28;20049;-75
2022/11/03 13:08:14;;;;;;;7.35;6.68;;;20.30;99.90;;;;;;5190565;28;20252;-75
2022/11/03 13:10:47;;;;;;;13.38;12.18;;;20.80;99.90;;;;;;5185961;28;20033;-75
2022/11/03 13:13:19;;;;;;;39.03;34.97;;;21.30;99.90;;;;;;5201974;28;20060;-74
2022/11/03 13:15:51;;;;;;;146.95;131.65;;;21.10;99.90;;;;;;5212198;28;20037;-75
2022/11/03 13:18:26;;;;;;;16.45;14.40;;;21.00;99.90;;;;;;5212237;28;20029;-74
2022/11/03 13:21:00;;;;;;;149.68;134.20;;;21.00;99.90;;;;;;5193548;28;20077;-75
2022/11/03 13:23:34;;;;;;;124.90;95.47;;;21.40;99.90;;;;;;5193115;28;20230;-76
2022/11/03 13:26:06;;;;;;;27.23;24.00;;;21.00;99.90;;;;;;5210554;28;20048;-76
2022/11/03 13:28:37;;;;;;;61.00;54.28;;;20.30;99.90;;;;;;5215225;28;20055;-76
2022/11/03 13:31:13;;;;;;;73.70;66.25;;;19.50;99.90;;;;;;5195485;28;20041;-75
2022/11/03 13:33:44;;;;;;;51.05;45.42;;;19.30;99.90;;;;;;5208992;28;20051;-74
2022/11/03 13:36:21;;;;;;;16.85;15.18;;;19.40;99.90;;;;;;5211731;28;20033;-77
2022/11/03 13:38:53;;;;;;;32.28;28.83;;;20.00;99.90;;;;;;5203845;28;20041;-75
2022/11/03 13:41:29;;;;;;;22.55;19.88;;;20.20;99.90;;;;;;5222009;28;20029;-74
2022/11/03 13:44:03;;;;;;;86.63;77.50;;;19.90;99.90;;;;;;5204916;28;20025;-75
2022/11/03 13:46:34;;;;;;;12.20;10.93;;;19.60;99.90;;;;;;5228023;28;20580;-74
2022/11/03 13:49:08;;;;;;;111.70;100.63;;;19.00;99.90;;;;;;5231635;28;20103;-75
2022/11/03 13:51:39;;;;;;;55.08;49.78;;;19.60;99.90;;;;;;5214474;28;20020;-75
2022/11/03 13:54:11;;;;;;;21.70;19.55;;;19.90;99.90;;;;;;5232057;28;20029;-74